sensor_id;sensor_type;location;lat;lon;timestamp;P1;durP1;ratioP1;P2;durP2;ratioP2
26488;SDS011;14169;43.684;10.484;2023-04-06T00:00:47;2.08;;;1.58;;
26488;SDS011;14169;43.684;10.484;2023-04-06T00:03:13;2.45;;;1.70;;
26488;SDS011;14169;43.684;10.484;2023-04-06T00:05:39;4.00;;;1.63;;
26488;SDS011;14169;43.684;10.484;2023-04-06T00:08:05;3.13;;;2.22;;
26488;SDS011;14169;43.684;10.484;2023-04-06T00:10:31;2.25;;;1.70;;
26488;SDS011;14169;43.684;10.484;2023-04-06T00:12:57;2.78;;;1.65;;
26488;SDS011;14169;43.684;10.484;2023-04-06T00:15:24;1.85;;;1.70;;
26488;SDS011;14169;43.684;10.484;2023-04-06T00:17:50;3.08;;;1.85;;
26488;SDS011;14169;43.684;10.484;2023-04-06T00:20:15;2.47;;;1.73;;
26488;SDS011;14169;43.684;10.484;2023-04-06T00:22:41;2.90;;;2.08;;
26488;SDS011;14169;43.684;10.484;2023-04-06T00:25:07;4.43;;;2.80;;
26488;SDS011;14169;43.684;10.484;2023-04-06T00:27:35;4.10;;;2.30;;
26488;SDS011;14169;43.684;10.484;2023-04-06T00:30:00;3.13;;;2.20;;
26488;SDS011;14169;43.684;10.484;2023-04-06T00:32:26;3.00;;;2.70;;
26488;SDS011;14169;43.684;10.484;2023-04-06T00:34:51;6.28;;;3.05;;
26488;SDS011;14169;43.684;10.484;2023-04-06T00:37:17;3.60;;;2.50;;
26488;SDS011;14169;43.684;10.484;2023-04-06T00:39:42;4.00;;;2.60;;
26488;SDS011;14169;43.684;10.484;2023-04-06T00:42:10;2.55;;;2.25;;
26488;SDS011;14169;43.684;10.484;2023-04-06T00:44:40;5.07;;;2.85;;
26488;SDS011;14169;43.684;10.484;2023-04-06T00:47:07;4.38;;;2.90;;
26488;SDS011;14169;43.684;10.484;2023-04-06T00:49:33;3.92;;;2.72;;
26488;SDS011;14169;43.684;10.484;2023-04-06T00:51:59;4.40;;;2.92;;
26488;SDS011;14169;43.684;10.484;2023-04-06T00:54:24;5.57;;;2.28;;
26488;SDS011;14169;43.684;10.484;2023-04-06T00:56:50;7.05;;;2.92;;
26488;SDS011;14169;43.684;10.484;2023-04-06T00:59:16;4.28;;;2.85;;
26488;SDS011;14169;43.684;10.484;2023-04-06T01:01:41;6.28;;;3.63;;
26488;SDS011;14169;43.684;10.484;2023-04-06T01:04:07;4.47;;;2.90;;
26488;SDS011;14169;43.684;10.484;2023-04-06T01:06:32;4.13;;;3.08;;
26488;SDS011;14169;43.684;10.484;2023-04-06T01:08:58;3.72;;;2.80;;
26488;SDS011;14169;43.684;10.484;2023-04-06T01:11:23;3.75;;;3.17;;
26488;SDS011;14169;43.684;10.484;2023-04-06T01:13:48;4.25;;;3.50;;
26488;SDS011;14169;43.684;10.484;2023-04-06T01:16:14;4.22;;;3.10;;
26488;SDS011;14169;43.684;10.484;2023-04-06T01:18:40;4.47;;;3.28;;
26488;SDS011;14169;43.684;10.484;2023-04-06T01:21:07;8.00;;;4.25;;
26488;SDS011;14169;43.684;10.484;2023-04-06T01:23:33;4.15;;;2.70;;
26488;SDS011;14169;43.684;10.484;2023-04-06T01:25:59;2.97;;;1.80;;
26488;SDS011;14169;43.684;10.484;2023-04-06T01:28:25;3.97;;;2.30;;
26488;SDS011;14169;43.684;10.484;2023-04-06T01:30:50;3.55;;;2.25;;
26488;SDS011;14169;43.684;10.484;2023-04-06T01:33:16;4.18;;;2.38;;
26488;SDS011;14169;43.684;10.484;2023-04-06T01:35:41;4.45;;;2.35;;
26488;SDS011;14169;43.684;10.484;2023-04-06T01:38:07;6.03;;;2.58;;
26488;SDS011;14169;43.684;10.484;2023-04-06T01:40:32;3.53;;;2.33;;
26488;SDS011;14169;43.684;10.484;2023-04-06T01:42:57;6.18;;;2.00;;
26488;SDS011;14169;43.684;10.484;2023-04-06T01:45:23;3.42;;;2.40;;
26488;SDS011;14169;43.684;10.484;2023-04-06T01:47:48;3.33;;;2.00;;
26488;SDS011;14169;43.684;10.484;2023-04-06T01:50:14;5.35;;;2.08;;
26488;SDS011;14169;43.684;10.484;2023-04-06T01:52:39;5.13;;;2.33;;
26488;SDS011;14169;43.684;10.484;2023-04-06T01:55:06;3.97;;;2.40;;
26488;SDS011;14169;43.684;10.484;2023-04-06T01:57:31;7.65;;;2.60;;
26488;SDS011;14169;43.684;10.484;2023-04-06T01:59:57;3.95;;;2.67;;
26488;SDS011;14169;43.684;10.484;2023-04-06T02:02:22;3.63;;;2.13;;
26488;SDS011;14169;43.684;10.484;2023-04-06T02:04:48;4.28;;;2.72;;
26488;SDS011;14169;43.684;10.484;2023-04-06T02:07:13;2.65;;;2.40;;
26488;SDS011;14169;43.684;10.484;2023-04-06T02:09:39;4.55;;;2.72;;
26488;SDS011;14169;43.684;10.484;2023-04-06T02:12:04;7.57;;;3.70;;
26488;SDS011;14169;43.684;10.484;2023-04-06T02:14:30;6.55;;;3.22;;
26488;SDS011;14169;43.684;10.484;2023-04-06T02:16:55;3.83;;;3.47;;
26488;SDS011;14169;43.684;10.484;2023-04-06T02:19:21;6.55;;;3.65;;
26488;SDS011;14169;43.684;10.484;2023-04-06T02:21:47;4.05;;;3.30;;
26488;SDS011;14169;43.684;10.484;2023-04-06T02:24:12;6.68;;;4.10;;
26488;SDS011;14169;43.684;10.484;2023-04-06T02:26:38;7.43;;;4.03;;
26488;SDS011;14169;43.684;10.484;2023-04-06T02:29:03;4.28;;;3.88;;
26488;SDS011;14169;43.684;10.484;2023-04-06T02:31:29;4.47;;;3.75;;
26488;SDS011;14169;43.684;10.484;2023-04-06T02:33:54;6.60;;;4.10;;
26488;SDS011;14169;43.684;10.484;2023-04-06T02:36:20;7.15;;;3.35;;
26488;SDS011;14169;43.684;10.484;2023-04-06T02:38:45;5.05;;;3.95;;
26488;SDS011;14169;43.684;10.484;2023-04-06T02:41:11;7.07;;;3.88;;
26488;SDS011;14169;43.684;10.484;2023-04-06T02:43:36;7.13;;;4.25;;
26488;SDS011;14169;43.684;10.484;2023-04-06T02:46:02;3.72;;;3.13;;
26488;SDS011;14169;43.684;10.484;2023-04-06T02:48:27;5.28;;;3.78;;
26488;SDS011;14169;43.684;10.484;2023-04-06T02:50:53;5.22;;;3.50;;
26488;SDS011;14169;43.684;10.484;2023-04-06T02:53:18;3.65;;;3.25;;
26488;SDS011;14169;43.684;10.484;2023-04-06T02:55:43;4.63;;;3.40;;
26488;SDS011;14169;43.684;10.484;2023-04-06T02:58:09;5.28;;;3.40;;
26488;SDS011;14169;43.684;10.484;2023-04-06T03:00:34;3.50;;;3.20;;
26488;SDS011;14169;43.684;10.484;2023-04-06T03:03:01;5.13;;;3.42;;
26488;SDS011;14169;43.684;10.484;2023-04-06T03:05:26;8.60;;;4.25;;
26488;SDS011;14169;43.684;10.484;2023-04-06T03:07:52;5.00;;;3.75;;
26488;SDS011;14169;43.684;10.484;2023-04-06T03:10:17;4.38;;;3.97;;
26488;SDS011;14169;43.684;10.484;2023-04-06T03:12:42;4.05;;;3.10;;
26488;SDS011;14169;43.684;10.484;2023-04-06T03:15:08;5.05;;;3.20;;
26488;SDS011;14169;43.684;10.484;2023-04-06T03:17:34;3.33;;;2.95;;
26488;SDS011;14169;43.684;10.484;2023-04-06T03:20:00;4.68;;;2.55;;
26488;SDS011;14169;43.684;10.484;2023-04-06T03:22:25;4.20;;;3.28;;
26488;SDS011;14169;43.684;10.484;2023-04-06T03:24:51;3.10;;;2.50;;
26488;SDS011;14169;43.684;10.484;2023-04-06T03:27:16;2.60;;;2.13;;
26488;SDS011;14169;43.684;10.484;2023-04-06T03:29:41;3.03;;;2.55;;
26488;SDS011;14169;43.684;10.484;2023-04-06T03:32:07;3.45;;;2.70;;
26488;SDS011;14169;43.684;10.484;2023-04-06T03:34:32;4.72;;;2.65;;
26488;SDS011;14169;43.684;10.484;2023-04-06T03:36:58;8.40;;;2.80;;
26488;SDS011;14169;43.684;10.484;2023-04-06T03:39:23;5.20;;;3.20;;
26488;SDS011;14169;43.684;10.484;2023-04-06T03:41:49;3.33;;;2.25;;
26488;SDS011;14169;43.684;10.484;2023-04-06T03:44:14;6.22;;;2.58;;
26488;SDS011;14169;43.684;10.484;2023-04-06T03:46:40;3.35;;;2.40;;
26488;SDS011;14169;43.684;10.484;2023-04-06T03:49:05;4.20;;;3.30;;
26488;SDS011;14169;43.684;10.484;2023-04-06T03:51:31;6.70;;;4.07;;
26488;SDS011;14169;43.684;10.484;2023-04-06T03:53:56;25.00;;;16.50;;
26488;SDS011;14169;43.684;10.484;2023-04-06T03:56:22;78.00;;;41.35;;
26488;SDS011;14169;43.684;10.484;2023-04-06T03:58:47;100.03;;;52.45;;
26488;SDS011;14169;43.684;10.484;2023-04-06T04:01:16;75.57;;;40.72;;
26488;SDS011;14169;43.684;10.484;2023-04-06T04:03:44;50.13;;;31.52;;
26488;SDS011;14169;43.684;10.484;2023-04-06T04:06:09;13.90;;;11.73;;
26488;SDS011;14169;43.684;10.484;2023-04-06T04:08:35;6.15;;;5.40;;
26488;SDS011;14169;43.684;10.484;2023-04-06T04:11:00;7.72;;;5.00;;
26488;SDS011;14169;43.684;10.484;2023-04-06T04:13:26;8.50;;;6.97;;
26488;SDS011;14169;43.684;10.484;2023-04-06T04:15:51;8.65;;;4.82;;
26488;SDS011;14169;43.684;10.484;2023-04-06T04:18:18;7.22;;;5.68;;
26488;SDS011;14169;43.684;10.484;2023-04-06T04:20:43;8.50;;;4.70;;
26488;SDS011;14169;43.684;10.484;2023-04-06T04:23:09;5.30;;;4.65;;
26488;SDS011;14169;43.684;10.484;2023-04-06T04:25:34;5.10;;;4.70;;
26488;SDS011;14169;43.684;10.484;2023-04-06T04:28:00;5.85;;;4.57;;
26488;SDS011;14169;43.684;10.484;2023-04-06T04:30:25;4.88;;;3.83;;
26488;SDS011;14169;43.684;10.484;2023-04-06T04:32:51;7.45;;;3.92;;
26488;SDS011;14169;43.684;10.484;2023-04-06T04:35:16;13.07;;;10.50;;
26488;SDS011;14169;43.684;10.484;2023-04-06T04:37:42;38.15;;;22.67;;
26488;SDS011;14169;43.684;10.484;2023-04-06T04:40:07;16.02;;;14.13;;
26488;SDS011;14169;43.684;10.484;2023-04-06T04:42:33;29.23;;;19.08;;
26488;SDS011;14169;43.684;10.484;2023-04-06T04:44:59;26.08;;;17.35;;
26488;SDS011;14169;43.684;10.484;2023-04-06T04:47:24;28.65;;;16.20;;
26488;SDS011;14169;43.684;10.484;2023-04-06T04:49:50;34.88;;;20.02;;
26488;SDS011;14169;43.684;10.484;2023-04-06T04:52:15;41.28;;;21.58;;
26488;SDS011;14169;43.684;10.484;2023-04-06T04:54:40;17.60;;;13.18;;
26488;SDS011;14169;43.684;10.484;2023-04-06T04:57:06;11.38;;;7.50;;
26488;SDS011;14169;43.684;10.484;2023-04-06T04:59:31;8.95;;;4.88;;
26488;SDS011;14169;43.684;10.484;2023-04-06T05:01:57;6.20;;;4.68;;
26488;SDS011;14169;43.684;10.484;2023-04-06T05:04:23;5.80;;;4.40;;
26488;SDS011;14169;43.684;10.484;2023-04-06T05:06:48;4.90;;;4.15;;
26488;SDS011;14169;43.684;10.484;2023-04-06T05:09:14;5.43;;;4.38;;
26488;SDS011;14169;43.684;10.484;2023-04-06T05:11:40;6.47;;;4.78;;
26488;SDS011;14169;43.684;10.484;2023-04-06T05:14:05;6.82;;;4.38;;
26488;SDS011;14169;43.684;10.484;2023-04-06T05:16:32;6.28;;;4.30;;
26488;SDS011;14169;43.684;10.484;2023-04-06T05:18:58;9.00;;;4.20;;
26488;SDS011;14169;43.684;10.484;2023-04-06T05:21:24;4.25;;;3.80;;
26488;SDS011;14169;43.684;10.484;2023-04-06T05:23:51;4.50;;;3.83;;
26488;SDS011;14169;43.684;10.484;2023-04-06T05:26:16;5.70;;;4.38;;
26488;SDS011;14169;43.684;10.484;2023-04-06T05:28:42;8.77;;;4.50;;
26488;SDS011;14169;43.684;10.484;2023-04-06T05:31:09;6.57;;;4.60;;
26488;SDS011;14169;43.684;10.484;2023-04-06T05:33:34;7.38;;;3.90;;
26488;SDS011;14169;43.684;10.484;2023-04-06T05:36:00;7.30;;;4.63;;
26488;SDS011;14169;43.684;10.484;2023-04-06T05:38:26;5.57;;;4.60;;
26488;SDS011;14169;43.684;10.484;2023-04-06T05:40:51;11.70;;;4.32;;
26488;SDS011;14169;43.684;10.484;2023-04-06T05:43:16;6.00;;;3.67;;
26488;SDS011;14169;43.684;10.484;2023-04-06T05:45:43;10.15;;;4.30;;
26488;SDS011;14169;43.684;10.484;2023-04-06T05:48:10;6.68;;;3.97;;
26488;SDS011;14169;43.684;10.484;2023-04-06T05:50:35;5.57;;;3.85;;
26488;SDS011;14169;43.684;10.484;2023-04-06T05:53:01;6.22;;;3.50;;
26488;SDS011;14169;43.684;10.484;2023-04-06T05:55:26;3.95;;;2.83;;
26488;SDS011;14169;43.684;10.484;2023-04-06T05:57:52;4.78;;;3.45;;
26488;SDS011;14169;43.684;10.484;2023-04-06T06:00:18;6.85;;;3.65;;
26488;SDS011;14169;43.684;10.484;2023-04-06T06:02:44;5.78;;;4.05;;
26488;SDS011;14169;43.684;10.484;2023-04-06T06:05:09;6.75;;;4.78;;
26488;SDS011;14169;43.684;10.484;2023-04-06T06:07:35;14.15;;;4.78;;
26488;SDS011;14169;43.684;10.484;2023-04-06T06:10:01;9.20;;;4.60;;
26488;SDS011;14169;43.684;10.484;2023-04-06T06:12:27;6.50;;;4.25;;
26488;SDS011;14169;43.684;10.484;2023-04-06T06:14:52;6.22;;;4.00;;
26488;SDS011;14169;43.684;10.484;2023-04-06T06:17:18;5.43;;;4.15;;
26488;SDS011;14169;43.684;10.484;2023-04-06T06:19:43;5.70;;;3.75;;
26488;SDS011;14169;43.684;10.484;2023-04-06T06:22:09;3.90;;;2.80;;
26488;SDS011;14169;43.684;10.484;2023-04-06T06:24:34;5.53;;;4.07;;
26488;SDS011;14169;43.684;10.484;2023-04-06T06:27:00;6.32;;;4.80;;
26488;SDS011;14169;43.684;10.484;2023-04-06T06:29:25;6.53;;;4.68;;
26488;SDS011;14169;43.684;10.484;2023-04-06T06:31:50;5.32;;;4.28;;
26488;SDS011;14169;43.684;10.484;2023-04-06T06:34:16;9.05;;;4.70;;
26488;SDS011;14169;43.684;10.484;2023-04-06T06:36:41;5.07;;;3.75;;
26488;SDS011;14169;43.684;10.484;2023-04-06T06:39:07;7.00;;;4.43;;
26488;SDS011;14169;43.684;10.484;2023-04-06T06:41:32;4.85;;;3.25;;
26488;SDS011;14169;43.684;10.484;2023-04-06T06:43:58;7.10;;;3.10;;
26488;SDS011;14169;43.684;10.484;2023-04-06T06:46:23;5.35;;;3.33;;
26488;SDS011;14169;43.684;10.484;2023-04-06T06:48:48;5.00;;;3.53;;
26488;SDS011;14169;43.684;10.484;2023-04-06T06:51:14;4.55;;;3.50;;
26488;SDS011;14169;43.684;10.484;2023-04-06T06:53:39;4.70;;;3.33;;
26488;SDS011;14169;43.684;10.484;2023-04-06T06:56:05;7.32;;;3.88;;
26488;SDS011;14169;43.684;10.484;2023-04-06T06:58:30;6.18;;;3.90;;
26488;SDS011;14169;43.684;10.484;2023-04-06T07:00:58;12.65;;;5.10;;
26488;SDS011;14169;43.684;10.484;2023-04-06T07:03:24;6.63;;;4.72;;
26488;SDS011;14169;43.684;10.484;2023-04-06T07:05:50;4.80;;;3.67;;
26488;SDS011;14169;43.684;10.484;2023-04-06T07:08:22;4.65;;;4.13;;
26488;SDS011;14169;43.684;10.484;2023-04-06T07:10:49;7.13;;;4.10;;
26488;SDS011;14169;43.684;10.484;2023-04-06T07:13:17;6.85;;;4.72;;
26488;SDS011;14169;43.684;10.484;2023-04-06T07:15:46;7.03;;;5.65;;
26488;SDS011;14169;43.684;10.484;2023-04-06T07:18:12;7.47;;;5.32;;
26488;SDS011;14169;43.684;10.484;2023-04-06T07:20:37;6.00;;;5.03;;
26488;SDS011;14169;43.684;10.484;2023-04-06T07:23:03;7.30;;;5.28;;
26488;SDS011;14169;43.684;10.484;2023-04-06T07:25:29;9.05;;;4.97;;
26488;SDS011;14169;43.684;10.484;2023-04-06T07:27:54;5.63;;;5.03;;
26488;SDS011;14169;43.684;10.484;2023-04-06T07:30:20;7.38;;;4.40;;
26488;SDS011;14169;43.684;10.484;2023-04-06T07:32:47;7.22;;;4.65;;
26488;SDS011;14169;43.684;10.484;2023-04-06T07:35:13;5.85;;;5.25;;
26488;SDS011;14169;43.684;10.484;2023-04-06T07:37:38;12.90;;;5.07;;
26488;SDS011;14169;43.684;10.484;2023-04-06T07:40:04;6.03;;;5.28;;
26488;SDS011;14169;43.684;10.484;2023-04-06T07:42:30;5.63;;;5.03;;
26488;SDS011;14169;43.684;10.484;2023-04-06T07:44:55;4.72;;;3.55;;
26488;SDS011;14169;43.684;10.484;2023-04-06T07:47:20;4.97;;;4.28;;
26488;SDS011;14169;43.684;10.484;2023-04-06T07:49:46;8.45;;;2.95;;
26488;SDS011;14169;43.684;10.484;2023-04-06T07:52:12;5.32;;;2.60;;
26488;SDS011;14169;43.684;10.484;2023-04-06T07:54:37;3.63;;;2.30;;
26488;SDS011;14169;43.684;10.484;2023-04-06T07:57:02;4.47;;;2.28;;
26488;SDS011;14169;43.684;10.484;2023-04-06T07:59:28;6.18;;;2.80;;
26488;SDS011;14169;43.684;10.484;2023-04-06T08:01:53;5.70;;;2.72;;
26488;SDS011;14169;43.684;10.484;2023-04-06T08:04:19;4.00;;;2.78;;
26488;SDS011;14169;43.684;10.484;2023-04-06T08:06:45;4.15;;;3.40;;
26488;SDS011;14169;43.684;10.484;2023-04-06T08:09:10;4.90;;;2.63;;
26488;SDS011;14169;43.684;10.484;2023-04-06T08:11:36;6.07;;;2.55;;
26488;SDS011;14169;43.684;10.484;2023-04-06T08:14:01;5.80;;;2.65;;
26488;SDS011;14169;43.684;10.484;2023-04-06T08:16:27;5.88;;;3.17;;
26488;SDS011;14169;43.684;10.484;2023-04-06T08:18:52;4.50;;;2.58;;
26488;SDS011;14169;43.684;10.484;2023-04-06T08:21:17;3.97;;;2.90;;
26488;SDS011;14169;43.684;10.484;2023-04-06T08:23:43;4.40;;;2.80;;
26488;SDS011;14169;43.684;10.484;2023-04-06T08:26:08;4.18;;;2.97;;
26488;SDS011;14169;43.684;10.484;2023-04-06T08:28:34;3.92;;;2.72;;
26488;SDS011;14169;43.684;10.484;2023-04-06T08:31:04;6.20;;;2.72;;
26488;SDS011;14169;43.684;10.484;2023-04-06T08:33:30;6.13;;;2.95;;
26488;SDS011;14169;43.684;10.484;2023-04-06T08:35:56;4.35;;;2.78;;
26488;SDS011;14169;43.684;10.484;2023-04-06T08:38:21;5.55;;;2.80;;
26488;SDS011;14169;43.684;10.484;2023-04-06T08:40:47;4.78;;;3.22;;
26488;SDS011;14169;43.684;10.484;2023-04-06T08:43:14;3.78;;;2.95;;
26488;SDS011;14169;43.684;10.484;2023-04-06T08:45:44;12.25;;;3.25;;
26488;SDS011;14169;43.684;10.484;2023-04-06T08:48:09;4.47;;;2.97;;
26488;SDS011;14169;43.684;10.484;2023-04-06T08:50:37;3.53;;;2.70;;
26488;SDS011;14169;43.684;10.484;2023-04-06T08:53:03;4.13;;;2.80;;
26488;SDS011;14169;43.684;10.484;2023-04-06T08:55:30;3.70;;;2.55;;
26488;SDS011;14169;43.684;10.484;2023-04-06T08:57:58;4.13;;;2.83;;
26488;SDS011;14169;43.684;10.484;2023-04-06T09:00:24;7.68;;;2.85;;
26488;SDS011;14169;43.684;10.484;2023-04-06T09:02:51;5.78;;;3.17;;
26488;SDS011;14169;43.684;10.484;2023-04-06T09:05:20;3.95;;;2.88;;
26488;SDS011;14169;43.684;10.484;2023-04-06T09:07:46;6.75;;;3.88;;
26488;SDS011;14169;43.684;10.484;2023-04-06T09:10:12;8.25;;;3.38;;
26488;SDS011;14169;43.684;10.484;2023-04-06T09:12:37;4.93;;;3.35;;
26488;SDS011;14169;43.684;10.484;2023-04-06T09:15:03;6.10;;;3.80;;
26488;SDS011;14169;43.684;10.484;2023-04-06T09:17:29;5.28;;;3.38;;
26488;SDS011;14169;43.684;10.484;2023-04-06T09:20:02;7.47;;;3.90;;
26488;SDS011;14169;43.684;10.484;2023-04-06T09:22:38;4.60;;;4.03;;
26488;SDS011;14169;43.684;10.484;2023-04-06T09:25:04;6.45;;;4.15;;
26488;SDS011;14169;43.684;10.484;2023-04-06T09:27:34;17.65;;;4.68;;
26488;SDS011;14169;43.684;10.484;2023-04-06T09:30:05;4.35;;;3.97;;
26488;SDS011;14169;43.684;10.484;2023-04-06T09:32:32;6.80;;;4.35;;
26488;SDS011;14169;43.684;10.484;2023-04-06T09:35:10;6.00;;;4.07;;
26488;SDS011;14169;43.684;10.484;2023-04-06T09:37:35;5.97;;;3.70;;
26488;SDS011;14169;43.684;10.484;2023-04-06T09:40:04;5.90;;;4.03;;
26488;SDS011;14169;43.684;10.484;2023-04-06T09:42:32;5.55;;;3.72;;
26488;SDS011;14169;43.684;10.484;2023-04-06T09:44:57;5.45;;;4.22;;
26488;SDS011;14169;43.684;10.484;2023-04-06T09:47:23;4.88;;;3.92;;
26488;SDS011;14169;43.684;10.484;2023-04-06T09:49:51;5.20;;;3.90;;
26488;SDS011;14169;43.684;10.484;2023-04-06T09:52:21;5.63;;;4.05;;
26488;SDS011;14169;43.684;10.484;2023-04-06T09:54:50;4.45;;;3.80;;
26488;SDS011;14169;43.684;10.484;2023-04-06T09:57:20;5.28;;;4.25;;
26488;SDS011;14169;43.684;10.484;2023-04-06T10:08:06;5.45;;;3.63;;
26488;SDS011;14169;43.684;10.484;2023-04-06T10:10:34;5.53;;;4.30;;
26488;SDS011;14169;43.684;10.484;2023-04-06T10:13:00;5.90;;;4.20;;
26488;SDS011;14169;43.684;10.484;2023-04-06T10:15:27;5.60;;;4.55;;
26488;SDS011;14169;43.684;10.484;2023-04-06T10:17:54;6.47;;;4.28;;
26488;SDS011;14169;43.684;10.484;2023-04-06T10:20:23;5.15;;;3.58;;
26488;SDS011;14169;43.684;10.484;2023-04-06T10:23:08;6.47;;;5.55;;
26488;SDS011;14169;43.684;10.484;2023-04-06T10:25:51;6.45;;;5.00;;
26488;SDS011;14169;43.684;10.484;2023-04-06T10:28:18;5.20;;;3.50;;
26488;SDS011;14169;43.684;10.484;2023-04-06T10:30:44;4.15;;;3.75;;
26488;SDS011;14169;43.684;10.484;2023-04-06T10:33:13;5.55;;;3.78;;
26488;SDS011;14169;43.684;10.484;2023-04-06T10:35:39;5.03;;;3.90;;
26488;SDS011;14169;43.684;10.484;2023-04-06T10:38:05;4.45;;;4.05;;
26488;SDS011;14169;43.684;10.484;2023-04-06T10:40:30;5.90;;;4.43;;
26488;SDS011;14169;43.684;10.484;2023-04-06T10:43:08;4.20;;;3.42;;
26488;SDS011;14169;43.684;10.484;2023-04-06T10:45:33;7.15;;;4.32;;
26488;SDS011;14169;43.684;10.484;2023-04-06T10:48:00;4.20;;;3.33;;
26488;SDS011;14169;43.684;10.484;2023-04-06T10:50:26;4.43;;;3.58;;
26488;SDS011;14169;43.684;10.484;2023-04-06T10:53:01;6.25;;;3.50;;
26488;SDS011;14169;43.684;10.484;2023-04-06T10:55:27;4.72;;;4.10;;
26488;SDS011;14169;43.684;10.484;2023-04-06T10:57:54;4.15;;;3.53;;
26488;SDS011;14169;43.684;10.484;2023-04-06T11:00:19;4.07;;;3.67;;
26488;SDS011;14169;43.684;10.484;2023-04-06T11:02:45;4.78;;;3.85;;
26488;SDS011;14169;43.684;10.484;2023-04-06T11:05:12;4.47;;;4.07;;
26488;SDS011;14169;43.684;10.484;2023-04-06T11:07:40;3.80;;;3.30;;
26488;SDS011;14169;43.684;10.484;2023-04-06T11:10:06;6.57;;;4.18;;
26488;SDS011;14169;43.684;10.484;2023-04-06T11:12:33;4.95;;;4.10;;
26488;SDS011;14169;43.684;10.484;2023-04-06T11:15:00;5.30;;;3.67;;
26488;SDS011;14169;43.684;10.484;2023-04-06T11:17:30;6.45;;;3.90;;
26488;SDS011;14169;43.684;10.484;2023-04-06T11:19:57;5.03;;;3.78;;
26488;SDS011;14169;43.684;10.484;2023-04-06T11:22:23;4.95;;;4.05;;
26488;SDS011;14169;43.684;10.484;2023-04-06T11:24:50;4.28;;;3.78;;
26488;SDS011;14169;43.684;10.484;2023-04-06T11:27:15;4.68;;;3.42;;
26488;SDS011;14169;43.684;10.484;2023-04-06T11:29:42;5.13;;;3.45;;
26488;SDS011;14169;43.684;10.484;2023-04-06T11:32:08;3.97;;;3.58;;
26488;SDS011;14169;43.684;10.484;2023-04-06T11:34:38;4.65;;;4.05;;
26488;SDS011;14169;43.684;10.484;2023-04-06T11:37:08;6.40;;;4.18;;
26488;SDS011;14169;43.684;10.484;2023-04-06T11:39:38;4.70;;;3.58;;
26488;SDS011;14169;43.684;10.484;2023-04-06T11:42:08;5.43;;;4.00;;
26488;SDS011;14169;43.684;10.484;2023-04-06T11:44:35;4.30;;;3.90;;
26488;SDS011;14169;43.684;10.484;2023-04-06T11:47:05;7.93;;;5.90;;
26488;SDS011;14169;43.684;10.484;2023-04-06T11:49:32;5.25;;;3.95;;
26488;SDS011;14169;43.684;10.484;2023-04-06T11:52:01;4.32;;;3.92;;
26488;SDS011;14169;43.684;10.484;2023-04-06T11:54:31;6.00;;;4.28;;
26488;SDS011;14169;43.684;10.484;2023-04-06T11:57:01;6.50;;;3.47;;
26488;SDS011;14169;43.684;10.484;2023-04-06T11:59:28;4.10;;;2.95;;
26488;SDS011;14169;43.684;10.484;2023-04-06T12:01:53;5.15;;;3.20;;
26488;SDS011;14169;43.684;10.484;2023-04-06T12:04:19;4.80;;;3.72;;
26488;SDS011;14169;43.684;10.484;2023-04-06T12:06:45;5.18;;;3.05;;
26488;SDS011;14169;43.684;10.484;2023-04-06T12:09:11;7.00;;;3.90;;
26488;SDS011;14169;43.684;10.484;2023-04-06T12:11:36;4.50;;;3.67;;
26488;SDS011;14169;43.684;10.484;2023-04-06T12:14:02;5.95;;;4.55;;
26488;SDS011;14169;43.684;10.484;2023-04-06T12:16:30;3.83;;;2.50;;
26488;SDS011;14169;43.684;10.484;2023-04-06T12:18:59;2.88;;;2.47;;
26488;SDS011;14169;43.684;10.484;2023-04-06T12:21:26;3.78;;;2.25;;
26488;SDS011;14169;43.684;10.484;2023-04-06T12:23:53;2.40;;;2.05;;
26488;SDS011;14169;43.684;10.484;2023-04-06T12:26:18;2.83;;;2.10;;
26488;SDS011;14169;43.684;10.484;2023-04-06T12:28:44;4.43;;;1.67;;
26488;SDS011;14169;43.684;10.484;2023-04-06T12:31:16;3.17;;;2.00;;
26488;SDS011;14169;43.684;10.484;2023-04-06T12:33:42;2.10;;;1.60;;
26488;SDS011;14169;43.684;10.484;2023-04-06T12:36:13;4.07;;;1.70;;
26488;SDS011;14169;43.684;10.484;2023-04-06T12:38:44;2.22;;;1.85;;
26488;SDS011;14169;43.684;10.484;2023-04-06T12:41:11;3.45;;;1.70;;
26488;SDS011;14169;43.684;10.484;2023-04-06T12:43:36;1.88;;;1.65;;
26488;SDS011;14169;43.684;10.484;2023-04-06T12:46:02;2.70;;;1.70;;
26488;SDS011;14169;43.684;10.484;2023-04-06T12:48:28;2.17;;;1.83;;
26488;SDS011;14169;43.684;10.484;2023-04-06T12:50:54;5.10;;;1.85;;
26488;SDS011;14169;43.684;10.484;2023-04-06T12:53:27;2.40;;;1.67;;
26488;SDS011;14169;43.684;10.484;2023-04-06T12:55:53;2.92;;;2.13;;
26488;SDS011;14169;43.684;10.484;2023-04-06T12:58:20;3.33;;;1.83;;
26488;SDS011;14169;43.684;10.484;2023-04-06T13:00:47;2.25;;;1.50;;
26488;SDS011;14169;43.684;10.484;2023-04-06T13:03:13;2.60;;;1.60;;
26488;SDS011;14169;43.684;10.484;2023-04-06T13:05:51;2.53;;;2.10;;
26488;SDS011;14169;43.684;10.484;2023-04-06T13:08:18;5.78;;;2.08;;
26488;SDS011;14169;43.684;10.484;2023-04-06T13:10:48;3.45;;;2.45;;
26488;SDS011;14169;43.684;10.484;2023-04-06T13:13:15;3.90;;;2.00;;
26488;SDS011;14169;43.684;10.484;2023-04-06T13:15:41;3.25;;;1.63;;
26488;SDS011;14169;43.684;10.484;2023-04-06T13:18:07;8.15;;;2.85;;
26488;SDS011;14169;43.684;10.484;2023-04-06T13:20:32;3.15;;;1.95;;
26488;SDS011;14169;43.684;10.484;2023-04-06T13:22:58;2.40;;;1.65;;
26488;SDS011;14169;43.684;10.484;2023-04-06T13:25:24;1.95;;;1.70;;
26488;SDS011;14169;43.684;10.484;2023-04-06T13:27:49;2.55;;;1.65;;
26488;SDS011;14169;43.684;10.484;2023-04-06T13:30:15;2.47;;;1.65;;
26488;SDS011;14169;43.684;10.484;2023-04-06T13:32:41;1.98;;;1.38;;
26488;SDS011;14169;43.684;10.484;2023-04-06T13:35:07;1.88;;;1.30;;
26488;SDS011;14169;43.684;10.484;2023-04-06T13:37:33;2.20;;;1.40;;
26488;SDS011;14169;43.684;10.484;2023-04-06T13:39:59;3.72;;;1.55;;
26488;SDS011;14169;43.684;10.484;2023-04-06T13:42:25;2.45;;;1.58;;
26488;SDS011;14169;43.684;10.484;2023-04-06T13:44:51;2.10;;;1.40;;
26488;SDS011;14169;43.684;10.484;2023-04-06T13:47:18;2.17;;;1.40;;
26488;SDS011;14169;43.684;10.484;2023-04-06T13:49:43;4.13;;;1.80;;
26488;SDS011;14169;43.684;10.484;2023-04-06T13:52:08;3.17;;;1.77;;
26488;SDS011;14169;43.684;10.484;2023-04-06T13:54:35;2.97;;;1.40;;
26488;SDS011;14169;43.684;10.484;2023-04-06T13:57:01;3.35;;;1.20;;
26488;SDS011;14169;43.684;10.484;2023-04-06T13:59:35;2.92;;;1.23;;
26488;SDS011;14169;43.684;10.484;2023-04-06T14:02:05;3.10;;;1.67;;
26488;SDS011;14169;43.684;10.484;2023-04-06T14:04:32;2.80;;;1.50;;
26488;SDS011;14169;43.684;10.484;2023-04-06T14:06:58;1.75;;;1.35;;
26488;SDS011;14169;43.684;10.484;2023-04-06T14:09:24;1.92;;;1.40;;
26488;SDS011;14169;43.684;10.484;2023-04-06T14:11:50;3.33;;;1.67;;
26488;SDS011;14169;43.684;10.484;2023-04-06T14:14:16;2.67;;;1.30;;
26488;SDS011;14169;43.684;10.484;2023-04-06T14:16:42;3.05;;;1.77;;
26488;SDS011;14169;43.684;10.484;2023-04-06T14:19:11;3.38;;;1.40;;
26488;SDS011;14169;43.684;10.484;2023-04-06T14:21:41;1.98;;;1.27;;
26488;SDS011;14169;43.684;10.484;2023-04-06T14:24:07;2.15;;;1.60;;
26488;SDS011;14169;43.684;10.484;2023-04-06T14:26:33;3.05;;;2.35;;
26488;SDS011;14169;43.684;10.484;2023-04-06T14:29:00;2.00;;;1.38;;
26488;SDS011;14169;43.684;10.484;2023-04-06T14:31:27;2.20;;;1.77;;
26488;SDS011;14169;43.684;10.484;2023-04-06T14:33:52;2.22;;;1.40;;
26488;SDS011;14169;43.684;10.484;2023-04-06T14:36:18;1.80;;;1.38;;